sensor_id;sensor_type;location;lat;lon;timestamp;P1;durP1;ratioP1;P2;durP2;ratioP2
77061;SDS011;65989;51.686;5.138;2023-02-03T00:01:46;14.53;;;2.10;;
77061;SDS011;65989;51.686;5.138;2023-02-03T00:04:11;15.77;;;2.92;;
77061;SDS011;65989;51.686;5.138;2023-02-03T00:06:37;15.93;;;2.60;;
77061;SDS011;65989;51.686;5.138;2023-02-03T00:09:03;12.95;;;2.92;;
77061;SDS011;65989;51.686;5.138;2023-02-03T00:11:29;17.53;;;2.77;;
77061;SDS011;65989;51.686;5.138;2023-02-03T00:13:56;18.63;;;2.83;;
77061;SDS011;65989;51.686;5.138;2023-02-03T00:16:22;13.45;;;2.60;;
77061;SDS011;65989;51.686;5.138;2023-02-03T00:18:47;15.27;;;2.40;;
77061;SDS011;65989;51.686;5.138;2023-02-03T00:21:13;16.80;;;3.03;;
77061;SDS011;65989;51.686;5.138;2023-02-03T00:23:51;19.63;;;2.88;;
77061;SDS011;65989;51.686;5.138;2023-02-03T00:26:32;17.00;;;3.17;;
77061;SDS011;65989;51.686;5.138;2023-02-03T00:28:58;14.47;;;2.40;;
77061;SDS011;65989;51.686;5.138;2023-02-03T00:31:24;20.13;;;3.33;;
77061;SDS011;65989;51.686;5.138;2023-02-03T00:33:53;18.40;;;2.83;;
77061;SDS011;65989;51.686;5.138;2023-02-03T00:36:20;17.73;;;2.70;;
77061;SDS011;65989;51.686;5.138;2023-02-03T00:38:46;15.30;;;2.60;;
77061;SDS011;65989;51.686;5.138;2023-02-03T00:41:13;14.25;;;2.20;;
77061;SDS011;65989;51.686;5.138;2023-02-03T00:43:38;15.87;;;2.40;;
77061;SDS011;65989;51.686;5.138;2023-02-03T00:46:03;17.70;;;2.27;;
77061;SDS011;65989;51.686;5.138;2023-02-03T00:48:29;17.37;;;2.43;;
77061;SDS011;65989;51.686;5.138;2023-02-03T00:50:54;12.55;;;2.70;;
77061;SDS011;65989;51.686;5.138;2023-02-03T00:53:19;14.40;;;2.27;;
77061;SDS011;65989;51.686;5.138;2023-02-03T00:55:45;15.90;;;2.33;;
77061;SDS011;65989;51.686;5.138;2023-02-03T00:58:11;10.27;;;2.00;;
77061;SDS011;65989;51.686;5.138;2023-02-03T01:00:36;12.60;;;1.80;;
77061;SDS011;65989;51.686;5.138;2023-02-03T01:03:02;14.63;;;2.10;;
77061;SDS011;65989;51.686;5.138;2023-02-03T01:05:27;11.88;;;2.20;;
77061;SDS011;65989;51.686;5.138;2023-02-03T01:07:52;13.73;;;2.30;;
77061;SDS011;65989;51.686;5.138;2023-02-03T01:10:18;12.53;;;2.30;;
77061;SDS011;65989;51.686;5.138;2023-02-03T01:12:43;14.70;;;2.40;;
77061;SDS011;65989;51.686;5.138;2023-02-03T01:15:09;12.37;;;2.30;;
77061;SDS011;65989;51.686;5.138;2023-02-03T01:17:34;12.17;;;2.30;;
77061;SDS011;65989;51.686;5.138;2023-02-03T01:20:00;11.50;;;1.63;;
77061;SDS011;65989;51.686;5.138;2023-02-03T01:22:27;9.52;;;2.00;;
77061;SDS011;65989;51.686;5.138;2023-02-03T01:24:54;12.97;;;2.20;;
77061;SDS011;65989;51.686;5.138;2023-02-03T01:27:19;12.17;;;2.30;;
77061;SDS011;65989;51.686;5.138;2023-02-03T01:29:45;8.93;;;1.87;;
77061;SDS011;65989;51.686;5.138;2023-02-03T01:32:11;13.40;;;2.15;;
77061;SDS011;65989;51.686;5.138;2023-02-03T01:34:36;11.37;;;1.83;;
77061;SDS011;65989;51.686;5.138;2023-02-03T01:37:02;18.77;;;1.93;;
77061;SDS011;65989;51.686;5.138;2023-02-03T01:39:27;13.27;;;1.90;;
77061;SDS011;65989;51.686;5.138;2023-02-03T01:41:53;11.33;;;2.93;;
77061;SDS011;65989;51.686;5.138;2023-02-03T01:44:39;11.70;;;2.03;;
77061;SDS011;65989;51.686;5.138;2023-02-03T01:52:44;11.05;;;2.15;;
77061;SDS011;65989;51.686;5.138;2023-02-03T01:55:16;10.87;;;1.80;;
77061;SDS011;65989;51.686;5.138;2023-02-03T01:57:46;16.83;;;2.67;;
77061;SDS011;65989;51.686;5.138;2023-02-03T02:00:16;10.90;;;2.08;;
77061;SDS011;65989;51.686;5.138;2023-02-03T02:02:42;11.13;;;1.80;;
77061;SDS011;65989;51.686;5.138;2023-02-03T02:05:13;10.30;;;1.80;;
77061;SDS011;65989;51.686;5.138;2023-02-03T02:07:44;10.75;;;2.03;;
77061;SDS011;65989;51.686;5.138;2023-02-03T02:10:11;18.35;;;2.88;;
77061;SDS011;65989;51.686;5.138;2023-02-03T02:12:37;9.83;;;1.87;;
77061;SDS011;65989;51.686;5.138;2023-02-03T02:15:02;14.03;;;2.57;;
77061;SDS011;65989;51.686;5.138;2023-02-03T02:17:38;10.63;;;2.30;;
77061;SDS011;65989;51.686;5.138;2023-02-03T02:36:34;9.48;;;2.00;;
77061;SDS011;65989;51.686;5.138;2023-02-03T02:42:17;8.82;;;2.38;;
77061;SDS011;65989;51.686;5.138;2023-02-03T02:44:55;13.95;;;1.90;;
77061;SDS011;65989;51.686;5.138;2023-02-03T02:47:26;10.80;;;1.90;;
77061;SDS011;65989;51.686;5.138;2023-02-03T02:50:06;13.95;;;2.10;;
77061;SDS011;65989;51.686;5.138;2023-02-03T02:52:39;8.55;;;1.63;;
77061;SDS011;65989;51.686;5.138;2023-02-03T02:55:09;10.70;;;1.70;;
77061;SDS011;65989;51.686;5.138;2023-02-03T02:57:37;8.93;;;1.85;;
77061;SDS011;65989;51.686;5.138;2023-02-03T03:00:04;12.40;;;2.15;;
77061;SDS011;65989;51.686;5.138;2023-02-03T03:02:32;9.23;;;1.77;;
77061;SDS011;65989;51.686;5.138;2023-02-03T03:04:59;10.70;;;1.73;;
77061;SDS011;65989;51.686;5.138;2023-02-03T03:07:25;17.53;;;2.53;;
77061;SDS011;65989;51.686;5.138;2023-02-03T03:09:56;8.73;;;1.88;;
77061;SDS011;65989;51.686;5.138;2023-02-03T03:12:36;11.63;;;2.70;;
77061;SDS011;65989;51.686;5.138;2023-02-03T03:15:07;14.52;;;2.00;;
77061;SDS011;65989;51.686;5.138;2023-02-03T03:17:49;8.90;;;2.00;;
77061;SDS011;65989;51.686;5.138;2023-02-03T03:20:38;10.33;;;1.83;;
77061;SDS011;65989;51.686;5.138;2023-02-03T03:23:10;9.77;;;1.58;;
77061;SDS011;65989;51.686;5.138;2023-02-03T03:25:45;9.70;;;1.67;;
77061;SDS011;65989;51.686;5.138;2023-02-03T03:28:16;11.13;;;2.20;;
77061;SDS011;65989;51.686;5.138;2023-02-03T03:30:50;10.63;;;1.63;;
77061;SDS011;65989;51.686;5.138;2023-02-03T03:33:17;11.53;;;1.67;;
77061;SDS011;65989;51.686;5.138;2023-02-03T03:36:02;8.90;;;1.70;;
77061;SDS011;65989;51.686;5.138;2023-02-03T03:38:49;9.63;;;1.50;;
77061;SDS011;65989;51.686;5.138;2023-02-03T03:41:24;7.28;;;1.73;;
77061;SDS011;65989;51.686;5.138;2023-02-03T03:43:56;10.43;;;1.50;;
77061;SDS011;65989;51.686;5.138;2023-02-03T03:46:29;7.00;;;1.27;;
77061;SDS011;65989;51.686;5.138;2023-02-03T03:49:01;9.77;;;1.48;;
77061;SDS011;65989;51.686;5.138;2023-02-03T03:51:30;9.90;;;1.67;;
77061;SDS011;65989;51.686;5.138;2023-02-03T03:54:00;10.70;;;1.70;;
77061;SDS011;65989;51.686;5.138;2023-02-03T03:56:31;9.27;;;1.77;;
77061;SDS011;65989;51.686;5.138;2023-02-03T03:59:03;12.33;;;1.50;;
77061;SDS011;65989;51.686;5.138;2023-02-03T04:01:31;11.80;;;2.00;;
77061;SDS011;65989;51.686;5.138;2023-02-03T04:03:58;9.45;;;1.50;;
77061;SDS011;65989;51.686;5.138;2023-02-03T04:06:26;10.65;;;1.75;;
77061;SDS011;65989;51.686;5.138;2023-02-03T04:08:52;12.27;;;1.90;;
77061;SDS011;65989;51.686;5.138;2023-02-03T04:11:17;9.93;;;1.70;;
77061;SDS011;65989;51.686;5.138;2023-02-03T04:14:01;11.55;;;2.03;;
77061;SDS011;65989;51.686;5.138;2023-02-03T04:16:27;14.10;;;2.73;;
77061;SDS011;65989;51.686;5.138;2023-02-03T04:18:52;5.28;;;1.35;;
77061;SDS011;65989;51.686;5.138;2023-02-03T04:21:18;9.77;;;1.60;;
77061;SDS011;65989;51.686;5.138;2023-02-03T04:23:43;10.13;;;1.60;;
77061;SDS011;65989;51.686;5.138;2023-02-03T04:26:08;12.40;;;1.80;;
77061;SDS011;65989;51.686;5.138;2023-02-03T04:28:36;10.17;;;1.50;;
77061;SDS011;65989;51.686;5.138;2023-02-03T04:31:02;7.20;;;1.30;;
77061;SDS011;65989;51.686;5.138;2023-02-03T04:33:27;8.50;;;1.90;;
77061;SDS011;65989;51.686;5.138;2023-02-03T04:35:52;11.77;;;2.00;;
77061;SDS011;65989;51.686;5.138;2023-02-03T04:38:18;10.73;;;1.60;;
77061;SDS011;65989;51.686;5.138;2023-02-03T04:40:43;14.70;;;2.67;;
77061;SDS011;65989;51.686;5.138;2023-02-03T04:43:09;9.90;;;1.70;;
77061;SDS011;65989;51.686;5.138;2023-02-03T04:45:35;12.20;;;1.70;;
77061;SDS011;65989;51.686;5.138;2023-02-03T04:48:01;9.52;;;1.70;;
77061;SDS011;65989;51.686;5.138;2023-02-03T04:50:28;11.27;;;2.13;;
77061;SDS011;65989;51.686;5.138;2023-02-03T04:52:54;7.57;;;1.73;;
77061;SDS011;65989;51.686;5.138;2023-02-03T04:55:19;8.10;;;1.60;;
77061;SDS011;65989;51.686;5.138;2023-02-03T04:57:45;17.70;;;2.00;;
77061;SDS011;65989;51.686;5.138;2023-02-03T05:00:10;6.47;;;1.37;;
77061;SDS011;65989;51.686;5.138;2023-02-03T05:02:36;16.27;;;2.13;;
77061;SDS011;65989;51.686;5.138;2023-02-03T05:05:01;9.57;;;1.83;;
77061;SDS011;65989;51.686;5.138;2023-02-03T05:07:27;9.07;;;2.07;;
77061;SDS011;65989;51.686;5.138;2023-02-03T05:09:52;15.43;;;2.10;;
77061;SDS011;65989;51.686;5.138;2023-02-03T05:12:18;11.73;;;1.70;;
77061;SDS011;65989;51.686;5.138;2023-02-03T05:14:43;9.15;;;1.67;;
77061;SDS011;65989;51.686;5.138;2023-02-03T05:17:08;9.20;;;2.00;;
77061;SDS011;65989;51.686;5.138;2023-02-03T05:19:34;7.90;;;1.70;;
77061;SDS011;65989;51.686;5.138;2023-02-03T05:21:59;9.30;;;1.60;;
77061;SDS011;65989;51.686;5.138;2023-02-03T05:24:24;9.37;;;1.90;;
77061;SDS011;65989;51.686;5.138;2023-02-03T05:26:50;12.32;;;1.27;;
77061;SDS011;65989;51.686;5.138;2023-02-03T05:29:15;13.67;;;2.00;;
77061;SDS011;65989;51.686;5.138;2023-02-03T05:31:41;10.60;;;1.60;;
77061;SDS011;65989;51.686;5.138;2023-02-03T05:34:06;15.87;;;1.80;;
77061;SDS011;65989;51.686;5.138;2023-02-03T05:36:31;6.97;;;1.33;;
77061;SDS011;65989;51.686;5.138;2023-02-03T05:38:57;13.03;;;1.97;;
77061;SDS011;65989;51.686;5.138;2023-02-03T05:41:22;9.38;;;1.70;;
77061;SDS011;65989;51.686;5.138;2023-02-03T05:44:06;16.85;;;1.80;;
77061;SDS011;65989;51.686;5.138;2023-02-03T05:46:31;6.97;;;1.70;;
77061;SDS011;65989;51.686;5.138;2023-02-03T05:48:57;7.80;;;1.50;;
77061;SDS011;65989;51.686;5.138;2023-02-03T05:51:22;8.83;;;1.73;;
77061;SDS011;65989;51.686;5.138;2023-02-03T05:53:48;15.15;;;2.13;;
77061;SDS011;65989;51.686;5.138;2023-02-03T05:56:14;10.85;;;1.90;;
77061;SDS011;65989;51.686;5.138;2023-02-03T05:58:39;7.70;;;1.50;;
77061;SDS011;65989;51.686;5.138;2023-02-03T06:01:05;10.93;;;1.73;;
77061;SDS011;65989;51.686;5.138;2023-02-03T06:03:30;13.50;;;1.70;;
77061;SDS011;65989;51.686;5.138;2023-02-03T06:05:56;7.63;;;1.57;;
77061;SDS011;65989;51.686;5.138;2023-02-03T06:08:22;16.63;;;1.77;;
77061;SDS011;65989;51.686;5.138;2023-02-03T06:10:55;11.68;;;1.55;;
77061;SDS011;65989;51.686;5.138;2023-02-03T06:13:21;13.32;;;1.83;;
77061;SDS011;65989;51.686;5.138;2023-02-03T06:15:46;10.03;;;1.50;;
77061;SDS011;65989;51.686;5.138;2023-02-03T06:18:12;14.07;;;1.93;;
77061;SDS011;65989;51.686;5.138;2023-02-03T06:20:37;11.47;;;1.70;;
77061;SDS011;65989;51.686;5.138;2023-02-03T06:23:03;9.23;;;1.53;;
77061;SDS011;65989;51.686;5.138;2023-02-03T06:25:28;7.77;;;1.50;;
77061;SDS011;65989;51.686;5.138;2023-02-03T06:27:56;6.68;;;1.35;;
77061;SDS011;65989;51.686;5.138;2023-02-03T06:30:21;14.13;;;1.77;;
77061;SDS011;65989;51.686;5.138;2023-02-03T06:32:47;10.63;;;1.95;;
77061;SDS011;65989;51.686;5.138;2023-02-03T06:35:13;10.20;;;1.90;;
77061;SDS011;65989;51.686;5.138;2023-02-03T06:37:39;11.90;;;1.57;;
77061;SDS011;65989;51.686;5.138;2023-02-03T06:40:05;10.83;;;1.50;;
77061;SDS011;65989;51.686;5.138;2023-02-03T06:42:31;13.05;;;1.90;;
77061;SDS011;65989;51.686;5.138;2023-02-03T06:44:57;8.80;;;1.70;;
77061;SDS011;65989;51.686;5.138;2023-02-03T06:47:23;15.23;;;1.93;;
77061;SDS011;65989;51.686;5.138;2023-02-03T06:49:48;14.75;;;1.90;;
77061;SDS011;65989;51.686;5.138;2023-02-03T06:52:16;7.60;;;1.42;;
77061;SDS011;65989;51.686;5.138;2023-02-03T06:54:41;14.70;;;1.77;;
77061;SDS011;65989;51.686;5.138;2023-02-03T06:57:07;10.57;;;1.70;;
77061;SDS011;65989;51.686;5.138;2023-02-03T06:59:32;6.63;;;1.40;;
77061;SDS011;65989;51.686;5.138;2023-02-03T07:01:58;9.00;;;1.70;;
77061;SDS011;65989;51.686;5.138;2023-02-03T07:04:23;13.23;;;2.30;;
77061;SDS011;65989;51.686;5.138;2023-02-03T07:06:49;13.70;;;2.20;;
77061;SDS011;65989;51.686;5.138;2023-02-03T07:09:14;14.30;;;2.17;;
77061;SDS011;65989;51.686;5.138;2023-02-03T07:11:40;9.13;;;2.15;;
77061;SDS011;65989;51.686;5.138;2023-02-03T07:14:05;11.83;;;1.77;;
77061;SDS011;65989;51.686;5.138;2023-02-03T07:16:31;12.53;;;1.83;;
77061;SDS011;65989;51.686;5.138;2023-02-03T07:18:58;13.85;;;2.33;;
77061;SDS011;65989;51.686;5.138;2023-02-03T07:21:24;11.63;;;1.83;;
77061;SDS011;65989;51.686;5.138;2023-02-03T07:23:49;12.40;;;1.98;;
77061;SDS011;65989;51.686;5.138;2023-02-03T07:26:15;12.70;;;1.73;;
77061;SDS011;65989;51.686;5.138;2023-02-03T07:28:41;10.63;;;1.83;;
77061;SDS011;65989;51.686;5.138;2023-02-03T07:31:07;12.17;;;1.87;;
77061;SDS011;65989;51.686;5.138;2023-02-03T07:33:34;12.10;;;1.98;;
77061;SDS011;65989;51.686;5.138;2023-02-03T07:36:00;17.35;;;3.13;;
77061;SDS011;65989;51.686;5.138;2023-02-03T07:38:26;13.73;;;2.07;;
77061;SDS011;65989;51.686;5.138;2023-02-03T07:40:52;12.30;;;2.17;;
77061;SDS011;65989;51.686;5.138;2023-02-03T07:43:18;13.37;;;2.60;;
77061;SDS011;65989;51.686;5.138;2023-02-03T07:45:43;14.77;;;2.28;;
77061;SDS011;65989;51.686;5.138;2023-02-03T07:48:10;10.50;;;1.90;;
77061;SDS011;65989;51.686;5.138;2023-02-03T07:50:35;12.60;;;1.90;;
77061;SDS011;65989;51.686;5.138;2023-02-03T07:53:01;10.77;;;1.95;;
77061;SDS011;65989;51.686;5.138;2023-02-03T07:55:27;17.77;;;2.03;;
77061;SDS011;65989;51.686;5.138;2023-02-03T07:57:53;11.15;;;2.70;;
77061;SDS011;65989;51.686;5.138;2023-02-03T08:00:22;16.00;;;2.10;;
77061;SDS011;65989;51.686;5.138;2023-02-03T08:02:48;16.10;;;2.10;;
77061;SDS011;65989;51.686;5.138;2023-02-03T08:05:14;17.88;;;2.30;;
77061;SDS011;65989;51.686;5.138;2023-02-03T08:07:40;12.02;;;2.20;;
77061;SDS011;65989;51.686;5.138;2023-02-03T08:10:06;13.67;;;2.27;;
77061;SDS011;65989;51.686;5.138;2023-02-03T08:12:32;19.50;;;2.33;;
77061;SDS011;65989;51.686;5.138;2023-02-03T08:14:58;12.27;;;2.23;;
77061;SDS011;65989;51.686;5.138;2023-02-03T08:17:23;15.93;;;2.57;;
77061;SDS011;65989;51.686;5.138;2023-02-03T08:19:49;11.83;;;2.40;;
77061;SDS011;65989;51.686;5.138;2023-02-03T08:22:14;13.20;;;2.30;;
77061;SDS011;65989;51.686;5.138;2023-02-03T08:24:44;16.17;;;2.60;;
77061;SDS011;65989;51.686;5.138;2023-02-03T08:27:14;15.30;;;2.53;;
77061;SDS011;65989;51.686;5.138;2023-02-03T08:29:41;14.73;;;2.40;;
77061;SDS011;65989;51.686;5.138;2023-02-03T08:32:14;16.73;;;2.93;;
77061;SDS011;65989;51.686;5.138;2023-02-03T08:34:42;14.57;;;2.47;;
77061;SDS011;65989;51.686;5.138;2023-02-03T08:37:09;12.95;;;2.70;;
77061;SDS011;65989;51.686;5.138;2023-02-03T08:39:36;13.25;;;2.35;;
77061;SDS011;65989;51.686;5.138;2023-02-03T08:42:02;14.43;;;2.70;;
77061;SDS011;65989;51.686;5.138;2023-02-03T08:44:28;18.75;;;2.80;;
77061;SDS011;65989;51.686;5.138;2023-02-03T08:46:56;16.75;;;2.65;;
77061;SDS011;65989;51.686;5.138;2023-02-03T08:49:22;18.08;;;2.65;;
77061;SDS011;65989;51.686;5.138;2023-02-03T08:51:50;18.07;;;2.57;;
77061;SDS011;65989;51.686;5.138;2023-02-03T08:54:16;16.08;;;3.15;;
77061;SDS011;65989;51.686;5.138;2023-02-03T08:56:42;15.32;;;2.28;;
77061;SDS011;65989;51.686;5.138;2023-02-03T08:59:07;15.40;;;2.50;;
77061;SDS011;65989;51.686;5.138;2023-02-03T09:01:32;20.33;;;2.70;;
77061;SDS011;65989;51.686;5.138;2023-02-03T09:03:58;14.37;;;2.33;;
77061;SDS011;65989;51.686;5.138;2023-02-03T09:06:26;14.80;;;2.30;;
77061;SDS011;65989;51.686;5.138;2023-02-03T09:08:51;16.02;;;2.58;;
77061;SDS011;65989;51.686;5.138;2023-02-03T09:11:17;19.00;;;2.53;;
77061;SDS011;65989;51.686;5.138;2023-02-03T09:13:43;20.58;;;2.70;;
77061;SDS011;65989;51.686;5.138;2023-02-03T09:16:17;16.20;;;2.80;;
77061;SDS011;65989;51.686;5.138;2023-02-03T09:18:50;17.17;;;2.30;;
77061;SDS011;65989;51.686;5.138;2023-02-03T09:21:43;12.48;;;2.28;;
77061;SDS011;65989;51.686;5.138;2023-02-03T09:24:09;17.02;;;2.50;;
77061;SDS011;65989;51.686;5.138;2023-02-03T09:26:34;13.43;;;2.53;;
77061;SDS011;65989;51.686;5.138;2023-02-03T09:29:00;16.40;;;2.50;;
77061;SDS011;65989;51.686;5.138;2023-02-03T09:31:25;19.23;;;2.83;;
77061;SDS011;65989;51.686;5.138;2023-02-03T09:33:51;13.63;;;2.63;;
77061;SDS011;65989;51.686;5.138;2023-02-03T09:36:16;15.87;;;2.13;;
77061;SDS011;65989;51.686;5.138;2023-02-03T09:38:41;13.10;;;2.30;;
77061;SDS011;65989;51.686;5.138;2023-02-03T09:41:13;17.37;;;3.10;;
77061;SDS011;65989;51.686;5.138;2023-02-03T09:44:03;14.52;;;2.35;;
77061;SDS011;65989;51.686;5.138;2023-02-03T09:46:43;10.13;;;1.95;;
77061;SDS011;65989;51.686;5.138;2023-02-03T09:49:23;15.87;;;2.20;;
77061;SDS011;65989;51.686;5.138;2023-02-03T09:54:38;17.13;;;3.05;;
77061;SDS011;65989;51.686;5.138;2023-02-03T09:57:17;17.08;;;2.45;;
77061;SDS011;65989;51.686;5.138;2023-02-03T09:59:46;12.45;;;2.08;;
77061;SDS011;65989;51.686;5.138;2023-02-03T10:04:43;15.93;;;3.28;;
77061;SDS011;65989;51.686;5.138;2023-02-03T10:07:25;15.30;;;3.17;;
77061;SDS011;65989;51.686;5.138;2023-02-03T10:10:20;12.80;;;2.30;;
77061;SDS011;65989;51.686;5.138;2023-02-03T10:17:58;16.88;;;2.40;;
77061;SDS011;65989;51.686;5.138;2023-02-03T10:20:41;14.10;;;2.20;;
77061;SDS011;65989;51.686;5.138;2023-02-03T10:23:12;16.30;;;2.38;;
77061;SDS011;65989;51.686;5.138;2023-02-03T10:25:43;14.20;;;2.75;;
77061;SDS011;65989;51.686;5.138;2023-02-03T10:28:15;12.60;;;2.20;;
77061;SDS011;65989;51.686;5.138;2023-02-03T10:30:44;12.82;;;2.17;;
77061;SDS011;65989;51.686;5.138;2023-02-03T10:33:15;11.32;;;2.08;;
77061;SDS011;65989;51.686;5.138;2023-02-03T10:35:45;18.85;;;3.80;;
77061;SDS011;65989;51.686;5.138;2023-02-03T10:38:23;12.07;;;2.13;;
77061;SDS011;65989;51.686;5.138;2023-02-03T10:40:58;9.73;;;2.10;;
77061;SDS011;65989;51.686;5.138;2023-02-03T10:43:24;9.20;;;2.15;;
77061;SDS011;65989;51.686;5.138;2023-02-03T10:46:12;13.47;;;2.40;;
77061;SDS011;65989;51.686;5.138;2023-02-03T10:48:57;12.05;;;1.67;;
77061;SDS011;65989;51.686;5.138;2023-02-03T10:53:50;10.27;;;2.20;;
77061;SDS011;65989;51.686;5.138;2023-02-03T10:56:26;13.63;;;2.38;;
77061;SDS011;65989;51.686;5.138;2023-02-03T10:59:01;12.27;;;2.65;;
77061;SDS011;65989;51.686;5.138;2023-02-03T11:01:37;12.27;;;2.20;;
77061;SDS011;65989;51.686;5.138;2023-02-03T11:04:06;11.95;;;2.50;;
77061;SDS011;65989;51.686;5.138;2023-02-03T11:06:55;9.67;;;1.73;;
77061;SDS011;65989;51.686;5.138;2023-02-03T11:09:31;13.40;;;2.55;;
77061;SDS011;65989;51.686;5.138;2023-02-03T11:12:15;14.02;;;2.40;;
77061;SDS011;65989;51.686;5.138;2023-02-03T11:14:51;20.65;;;2.63;;
77061;SDS011;65989;51.686;5.138;2023-02-03T11:17:19;15.10;;;2.30;;
77061;SDS011;65989;51.686;5.138;2023-02-03T11:19:51;10.50;;;2.07;;
77061;SDS011;65989;51.686;5.138;2023-02-03T11:22:28;10.43;;;1.73;;
77061;SDS011;65989;51.686;5.138;2023-02-03T11:24:56;15.32;;;2.33;;
77061;SDS011;65989;51.686;5.138;2023-02-03T11:27:23;8.18;;;2.03;;
77061;SDS011;65989;51.686;5.138;2023-02-03T11:30:37;14.13;;;2.30;;
77061;SDS011;65989;51.686;5.138;2023-02-03T11:32:43;9.80;;;1.67;;
77061;SDS011;65989;51.686;5.138;2023-02-03T11:37:55;9.63;;;1.85;;
77061;SDS011;65989;51.686;5.138;2023-02-03T11:40:23;8.68;;;1.70;;
77061;SDS011;65989;51.686;5.138;2023-02-03T11:45:28;12.13;;;2.27;;
77061;SDS011;65989;51.686;5.138;2023-02-03T11:56:33;12.85;;;2.03;;
77061;SDS011;65989;51.686;5.138;2023-02-03T12:04:20;15.45;;;2.10;;
77061;SDS011;65989;51.686;5.138;2023-02-03T12:26:17;10.38;;;2.10;;
77061;SDS011;65989;51.686;5.138;2023-02-03T12:31:45;10.43;;;1.85;;
77061;SDS011;65989;51.686;5.138;2023-02-03T12:34:28;9.05;;;2.55;;
77061;SDS011;65989;51.686;5.138;2023-02-03T12:39:32;10.98;;;2.25;;
77061;SDS011;65989;51.686;5.138;2023-02-03T12:42:20;8.30;;;2.17;;
77061;SDS011;65989;51.686;5.138;2023-02-03T12:44:59;14.82;;;2.45;;
77061;SDS011;65989;51.686;5.138;2023-02-03T12:47:34;13.02;;;2.50;;
77061;SDS011;65989;51.686;5.138;2023-02-03T12:50:14;12.50;;;2.30;;
77061;SDS011;65989;51.686;5.138;2023-02-03T12:53:13;10.85;;;2.25;;
77061;SDS011;65989;51.686;5.138;2023-02-03T12:55:45;16.80;;;2.80;;
77061;SDS011;65989;51.686;5.138;2023-02-03T12:58:23;13.35;;;2.65;;
77061;SDS011;65989;51.686;5.138;2023-02-03T13:06:42;15.38;;;4.05;;
77061;SDS011;65989;51.686;5.138;2023-02-03T13:12:22;11.63;;;2.60;;
77061;SDS011;65989;51.686;5.138;2023-02-03T13:20:27;7.10;;;1.83;;
77061;SDS011;65989;51.686;5.138;2023-02-03T13:22:56;11.63;;;2.17;;
77061;SDS011;65989;51.686;5.138;2023-02-03T13:25:24;11.40;;;2.60;;
77061;SDS011;65989;51.686;5.138;2023-02-03T13:36:10;12.93;;;2.53;;
77061;SDS011;65989;51.686;5.138;2023-02-03T13:42:13;17.13;;;2.67;;
77061;SDS011;65989;51.686;5.138;2023-02-03T13:44:52;10.15;;;2.28;;
77061;SDS011;65989;51.686;5.138;2023-02-03T13:47:28;9.05;;;2.25;;
77061;SDS011;65989;51.686;5.138;2023-02-03T13:49:57;9.87;;;2.20;;
77061;SDS011;65989;51.686;5.138;2023-02-03T13:52:33;9.55;;;2.30;;
77061;SDS011;65989;51.686;5.138;2023-02-03T13:55:05;13.82;;;2.45;;
77061;SDS011;65989;51.686;5.138;2023-02-03T13:57:32;9.95;;;2.88;;
77061;SDS011;65989;51.686;5.138;2023-02-03T14:00:02;10.75;;;2.80;;
77061;SDS011;65989;51.686;5.138;2023-02-03T14:03:13;9.83;;;2.50;;
77061;SDS011;65989;51.686;5.138;2023-02-03T14:05:54;20.45;;;3.10;;
77061;SDS011;65989;51.686;5.138;2023-02-03T14:13:54;10.82;;;3.17;;
77061;SDS011;65989;51.686;5.138;2023-02-03T14:16:28;9.20;;;2.50;;
77061;SDS011;65989;51.686;5.138;2023-02-03T14:18:59;11.98;;;2.50;;
77061;SDS011;65989;51.686;5.138;2023-02-03T14:21:25;9.32;;;2.45;;
77061;SDS011;65989;51.686;5.138;2023-02-03T14:24:01;12.63;;;3.07;;
77061;SDS011;65989;51.686;5.138;2023-02-03T14:26:37;12.38;;;3.00;;
77061;SDS011;65989;51.686;5.138;2023-02-03T14:29:06;15.88;;;3.47;;
77061;SDS011;65989;51.686;5.138;2023-02-03T14:31:53;13.07;;;2.97;;
77061;SDS011;65989;51.686;5.138;2023-02-03T14:34:26;12.23;;;2.75;;
77061;SDS011;65989;51.686;5.138;2023-02-03T14:36:55;8.07;;;2.63;;
77061;SDS011;65989;51.686;5.138;2023-02-03T14:42:38;10.40;;;2.83;;
77061;SDS011;65989;51.686;5.138;2023-02-03T14:50:36;13.53;;;3.17;;
77061;SDS011;65989;51.686;5.138;2023-02-03T15:01:05;9.85;;;3.35;;
77061;SDS011;65989;51.686;5.138;2023-02-03T15:03:32;10.13;;;3.03;;
77061;SDS011;65989;51.686;5.138;2023-02-03T15:06:02;14.15;;;3.42;;
77061;SDS011;65989;51.686;5.138;2023-02-03T15:08:37;12.30;;;3.00;;
77061;SDS011;65989;51.686;5.138;2023-02-03T15:11:20;11.25;;;3.38;;
77061;SDS011;65989;51.686;5.138;2023-02-03T15:13:48;12.88;;;2.80;;
77061;SDS011;65989;51.686;5.138;2023-02-03T15:16:15;17.73;;;3.60;;
77061;SDS011;65989;51.686;5.138;2023-02-03T15:18:43;16.33;;;3.75;;
77061;SDS011;65989;51.686;5.138;2023-02-03T15:21:16;17.27;;;3.30;;
77061;SDS011;65989;51.686;5.138;2023-02-03T15:23:43;22.33;;;3.70;;
77061;SDS011;65989;51.686;5.138;2023-02-03T15:26:24;20.42;;;4.07;;
77061;SDS011;65989;51.686;5.138;2023-02-03T15:28:58;19.50;;;3.63;;
77061;SDS011;65989;51.686;5.138;2023-02-03T15:31:28;20.10;;;4.10;;
77061;SDS011;65989;51.686;5.138;2023-02-03T15:34:23;20.60;;;3.00;;
77061;SDS011;65989;51.686;5.138;2023-02-03T15:36:51;20.73;;;3.78;;
77061;SDS011;65989;51.686;5.138;2023-02-03T15:42:29;18.40;;;4.67;;
77061;SDS011;65989;51.686;5.138;2023-02-03T15:44:57;16.95;;;3.85;;
77061;SDS011;65989;51.686;5.138;2023-02-03T15:47:32;16.88;;;4.18;;
77061;SDS011;65989;51.686;5.138;2023-02-03T15:50:02;16.55;;;3.28;;
77061;SDS011;65989;51.686;5.138;2023-02-03T15:52:31;15.05;;;3.83;;
77061;SDS011;65989;51.686;5.138;2023-02-03T15:55:34;14.13;;;3.83;;
77061;SDS011;65989;51.686;5.138;2023-02-03T15:58:31;16.73;;;3.80;;
77061;SDS011;65989;51.686;5.138;2023-02-03T16:01:02;14.50;;;3.20;;
77061;SDS011;65989;51.686;5.138;2023-02-03T16:03:36;15.45;;;3.30;;
77061;SDS011;65989;51.686;5.138;2023-02-03T16:06:27;14.45;;;3.38;;
77061;SDS011;65989;51.686;5.138;2023-02-03T16:08:54;18.50;;;3.47;;
77061;SDS011;65989;51.686;5.138;2023-02-03T16:13:47;19.65;;;3.17;;
77061;SDS011;65989;51.686;5.138;2023-02-03T16:16:14;20.10;;;4.43;;
77061;SDS011;65989;51.686;5.138;2023-02-03T16:18:49;18.33;;;3.85;;
77061;SDS011;65989;51.686;5.138;2023-02-03T16:21:29;15.80;;;3.78;;
77061;SDS011;65989;51.686;5.138;2023-02-03T16:23:55;13.07;;;3.67;;
77061;SDS011;65989;51.686;5.138;2023-02-03T16:26:22;18.67;;;3.90;;
77061;SDS011;65989;51.686;5.138;2023-02-03T16:31:46;15.32;;;3.80;;
77061;SDS011;65989;51.686;5.138;2023-02-03T16:34:30;15.85;;;4.05;;
77061;SDS011;65989;51.686;5.138;2023-02-03T16:37:25;17.10;;;4.05;;
77061;SDS011;65989;51.686;5.138;2023-02-03T16:40:11;14.23;;;3.83;;
77061;SDS011;65989;51.686;5.138;2023-02-03T16:42:56;14.38;;;4.15;;
77061;SDS011;65989;51.686;5.138;2023-02-03T16:45:40;13.95;;;4.30;;
77061;SDS011;65989;51.686;5.138;2023-02-03T16:48:24;17.70;;;4.10;;
77061;SDS011;65989;51.686;5.138;2023-02-03T16:51:12;15.07;;;4.50;;
77061;SDS011;65989;51.686;5.138;2023-02-03T16:53:40;14.60;;;4.20;;
77061;SDS011;65989;51.686;5.138;2023-02-03T16:56:07;15.30;;;4.32;;
77061;SDS011;65989;51.686;5.138;2023-02-03T16:58:32;18.90;;;4.80;;
77061;SDS011;65989;51.686;5.138;2023-02-03T17:00:59;19.08;;;4.85;;
77061;SDS011;65989;51.686;5.138;2023-02-03T17:03:26;16.90;;;4.55;;
77061;SDS011;65989;51.686;5.138;2023-02-03T17:05:53;17.03;;;5.00;;
77061;SDS011;65989;51.686;5.138;2023-02-03T17:08:20;17.48;;;4.20;;
77061;SDS011;65989;51.686;5.138;2023-02-03T17:10:46;14.55;;;4.45;;
77061;SDS011;65989;51.686;5.138;2023-02-03T17:13:12;18.33;;;4.83;;
77061;SDS011;65989;51.686;5.138;2023-02-03T17:15:39;18.38;;;4.53;;